sensor_id;sensor_type;location;lat;lon;timestamp;pressure;altitude;pressure_sealevel;temperature;humidity
64404;BME280;50726;54.912;-8.392;2022-11-04T00:01:24;100088.69;;;29.72;41.73
64404;BME280;50726;54.912;-8.392;2022-11-04T00:03:51;100092.88;;;29.74;40.65
64404;BME280;50726;54.912;-8.392;2022-11-04T00:06:17;100093.03;;;30.21;40.21
64404;BME280;50726;54.912;-8.392;2022-11-04T00:08:55;100098.63;;;31.52;37.97
64404;BME280;50726;54.912;-8.392;2022-11-04T00:11:21;100089.84;;;30.26;39.28
64404;BME280;50726;54.912;-8.392;2022-11-04T00:14:08;100101.97;;;30.53;40.15
64404;BME280;50726;54.912;-8.392;2022-11-04T00:16:35;100106.56;;;30.76;39.34
64404;BME280;50726;54.912;-8.392;2022-11-04T00:19:19;100098.38;;;29.08;42.93
64404;BME280;50726;54.912;-8.392;2022-11-04T00:21:45;100090.09;;;29.51;40.79
64404;BME280;50726;54.912;-8.392;2022-11-04T00:24:30;100108.78;;;30.41;39.77
64404;BME280;50726;54.912;-8.392;2022-11-04T00:27:12;100113.22;;;31.27;39.26
64404;BME280;50726;54.912;-8.392;2022-11-04T00:29:57;100103.72;;;29.41;40.76
64404;BME280;50726;54.912;-8.392;2022-11-04T00:32:23;100106.28;;;29.10;41.99
64404;BME280;50726;54.912;-8.392;2022-11-04T00:35:10;100110.97;;;30.69;40.38
64404;BME280;50726;54.912;-8.392;2022-11-04T00:37:41;100121.16;;;32.19;37.24
64404;BME280;50726;54.912;-8.392;2022-11-04T00:40:08;100130.22;;;31.96;36.81
64404;BME280;50726;54.912;-8.392;2022-11-04T00:42:35;100129.47;;;31.57;36.11
64404;BME280;50726;54.912;-8.392;2022-11-04T00:45:02;100138.75;;;31.01;36.80
64404;BME280;50726;54.912;-8.392;2022-11-04T00:47:28;100140.69;;;31.84;36.05
64404;BME280;50726;54.912;-8.392;2022-11-04T00:49:53;100137.53;;;31.27;36.68
64404;BME280;50726;54.912;-8.392;2022-11-04T00:52:19;100143.47;;;30.52;37.02
64404;BME280;50726;54.912;-8.392;2022-11-04T00:54:46;100151.03;;;31.27;37.50
64404;BME280;50726;54.912;-8.392;2022-11-04T00:57:12;100146.06;;;30.69;37.40
64404;BME280;50726;54.912;-8.392;2022-11-04T00:59:38;100147.44;;;29.85;39.54
64404;BME280;50726;54.912;-8.392;2022-11-04T01:02:08;100146.84;;;30.14;39.96
64404;BME280;50726;54.912;-8.392;2022-11-04T01:04:35;100144.25;;;30.61;39.62
64404;BME280;50726;54.912;-8.392;2022-11-04T01:07:01;100141.41;;;31.48;39.09
64404;BME280;50726;54.912;-8.392;2022-11-04T01:09:28;100150.28;;;30.95;39.33
64404;BME280;50726;54.912;-8.392;2022-11-04T01:11:53;100153.53;;;30.59;39.53
64404;BME280;50726;54.912;-8.392;2022-11-04T01:14:21;100148.34;;;30.80;38.08
64404;BME280;50726;54.912;-8.392;2022-11-04T01:16:51;100137.69;;;31.79;37.79
64404;BME280;50726;54.912;-8.392;2022-11-04T01:19:17;100151.47;;;30.69;38.33
64404;BME280;50726;54.912;-8.392;2022-11-04T01:21:43;100148.88;;;31.23;37.44
64404;BME280;50726;54.912;-8.392;2022-11-04T01:24:09;100161.53;;;31.60;37.34
64404;BME280;50726;54.912;-8.392;2022-11-04T01:26:34;100166.16;;;31.37;37.66
64404;BME280;50726;54.912;-8.392;2022-11-04T01:29:01;100168.16;;;33.35;36.20
64404;BME280;50726;54.912;-8.392;2022-11-04T01:31:30;100173.00;;;31.78;37.35
64404;BME280;50726;54.912;-8.392;2022-11-04T01:33:56;100179.22;;;32.53;36.56
64404;BME280;50726;54.912;-8.392;2022-11-04T01:36:22;100183.72;;;30.22;38.83
64404;BME280;50726;54.912;-8.392;2022-11-04T01:38:49;100194.97;;;29.44;39.98
64404;BME280;50726;54.912;-8.392;2022-11-04T01:41:21;100200.47;;;30.49;39.11
64404;BME280;50726;54.912;-8.392;2022-11-04T01:43:55;100204.22;;;31.03;38.61
64404;BME280;50726;54.912;-8.392;2022-11-04T01:46:31;100196.66;;;31.45;38.35
64404;BME280;50726;54.912;-8.392;2022-11-04T01:49:24;100203.69;;;31.31;39.36
64404;BME280;50726;54.912;-8.392;2022-11-04T01:51:53;100202.00;;;31.69;38.42
64404;BME280;50726;54.912;-8.392;2022-11-04T01:54:22;100215.06;;;31.80;38.09
64404;BME280;50726;54.912;-8.392;2022-11-04T01:56:48;100215.44;;;32.37;37.42
64404;BME280;50726;54.912;-8.392;2022-11-04T01:59:36;100221.06;;;32.51;36.72
64404;BME280;50726;54.912;-8.392;2022-11-04T02:02:03;100227.88;;;31.01;38.02
64404;BME280;50726;54.912;-8.392;2022-11-04T02:04:29;100228.31;;;30.81;38.68
64404;BME280;50726;54.912;-8.392;2022-11-04T02:06:58;100225.78;;;31.35;37.58
64404;BME280;50726;54.912;-8.392;2022-11-04T02:09:27;100224.09;;;33.43;36.12
64404;BME280;50726;54.912;-8.392;2022-11-04T02:11:54;100227.44;;;31.13;37.58
64404;BME280;50726;54.912;-8.392;2022-11-04T02:14:39;100231.81;;;31.14;38.21
64404;BME280;50726;54.912;-8.392;2022-11-04T02:17:22;100238.72;;;33.71;34.89
64404;BME280;50726;54.912;-8.392;2022-11-04T02:34:15;100232.78;;;32.95;34.76
64404;BME280;50726;54.912;-8.392;2022-11-04T02:39:42;100244.53;;;34.32;33.35
64404;BME280;50726;54.912;-8.392;2022-11-04T02:42:28;100255.03;;;32.23;34.59
64404;BME280;50726;54.912;-8.392;2022-11-04T02:47:37;100259.00;;;31.59;36.39
64404;BME280;50726;54.912;-8.392;2022-11-04T02:50:11;100264.88;;;31.16;36.64
64404;BME280;50726;54.912;-8.392;2022-11-04T02:52:55;100262.66;;;32.20;35.81
64404;BME280;50726;54.912;-8.392;2022-11-04T02:55:26;100263.91;;;31.40;36.66
64404;BME280;50726;54.912;-8.392;2022-11-04T02:57:55;100264.25;;;30.82;37.13
64404;BME280;50726;54.912;-8.392;2022-11-04T03:00:24;100275.91;;;31.38;36.68
64404;BME280;50726;54.912;-8.392;2022-11-04T03:02:57;100270.66;;;31.98;35.59
64404;BME280;50726;54.912;-8.392;2022-11-04T03:05:32;100280.25;;;30.44;37.91
64404;BME280;50726;54.912;-8.392;2022-11-04T03:08:06;100281.69;;;30.63;38.88
64404;BME280;50726;54.912;-8.392;2022-11-04T03:10:43;100283.69;;;31.09;38.21
64404;BME280;50726;54.912;-8.392;2022-11-04T03:13:14;100275.41;;;30.22;39.40
64404;BME280;50726;54.912;-8.392;2022-11-04T03:15:48;100277.91;;;34.67;35.00
64404;BME280;50726;54.912;-8.392;2022-11-04T03:20:56;100287.47;;;36.34;33.16
64404;BME280;50726;54.912;-8.392;2022-11-04T03:23:22;100291.91;;;32.91;35.65
64404;BME280;50726;54.912;-8.392;2022-11-04T03:25:50;100295.97;;;32.35;37.78
64404;BME280;50726;54.912;-8.392;2022-11-04T03:28:42;100300.03;;;34.00;35.64
64404;BME280;50726;54.912;-8.392;2022-11-04T03:31:36;100305.88;;;33.69;34.98
64404;BME280;50726;54.912;-8.392;2022-11-04T03:34:05;100312.72;;;31.85;36.99
64404;BME280;50726;54.912;-8.392;2022-11-04T03:36:32;100292.72;;;32.55;36.93
64404;BME280;50726;54.912;-8.392;2022-11-04T03:38:57;100322.38;;;31.25;36.82
64404;BME280;50726;54.912;-8.392;2022-11-04T03:41:52;100315.91;;;32.19;36.25
64404;BME280;50726;54.912;-8.392;2022-11-04T03:44:16;100316.34;;;30.91;35.61
64404;BME280;50726;54.912;-8.392;2022-11-04T03:46:43;100310.53;;;32.64;34.74
64404;BME280;50726;54.912;-8.392;2022-11-04T03:49:10;100324.28;;;33.15;34.36
64404;BME280;50726;54.912;-8.392;2022-11-04T03:51:36;100333.31;;;33.00;33.83
64404;BME280;50726;54.912;-8.392;2022-11-04T03:54:03;100331.06;;;33.47;33.71
64404;BME280;50726;54.912;-8.392;2022-11-04T04:05:32;100350.78;;;32.52;34.86
64404;BME280;50726;54.912;-8.392;2022-11-04T04:10:55;100344.41;;;34.14;32.24
64404;BME280;50726;54.912;-8.392;2022-11-04T04:13:48;100352.03;;;33.54;32.61
64404;BME280;50726;54.912;-8.392;2022-11-04T04:16:25;100362.94;;;34.04;32.69
64404;BME280;50726;54.912;-8.392;2022-11-04T04:19:02;100362.97;;;33.89;32.64
64404;BME280;50726;54.912;-8.392;2022-11-04T04:21:51;100354.19;;;34.37;31.63
64404;BME280;50726;54.912;-8.392;2022-11-04T04:24:22;100379.78;;;32.05;34.51
64404;BME280;50726;54.912;-8.392;2022-11-04T04:27:10;100367.81;;;31.84;34.61
64404;BME280;50726;54.912;-8.392;2022-11-04T04:29:56;100370.66;;;32.45;33.26
64404;BME280;50726;54.912;-8.392;2022-11-04T04:32:25;100372.22;;;33.14;33.04
64404;BME280;50726;54.912;-8.392;2022-11-04T04:34:52;100380.44;;;31.84;33.38
64404;BME280;50726;54.912;-8.392;2022-11-04T04:37:41;100390.28;;;33.29;32.39
64404;BME280;50726;54.912;-8.392;2022-11-04T04:40:11;100392.03;;;33.52;32.53
64404;BME280;50726;54.912;-8.392;2022-11-04T04:42:58;100392.50;;;32.73;32.26
64404;BME280;50726;54.912;-8.392;2022-11-04T04:45:54;100384.34;;;31.90;34.48
64404;BME280;50726;54.912;-8.392;2022-11-04T04:48:21;100393.81;;;31.30;35.61
64404;BME280;50726;54.912;-8.392;2022-11-04T04:50:49;100396.78;;;32.14;35.13
64404;BME280;50726;54.912;-8.392;2022-11-04T04:53:15;100395.91;;;31.12;36.37
64404;BME280;50726;54.912;-8.392;2022-11-04T04:55:41;100418.97;;;30.74;36.83
64404;BME280;50726;54.912;-8.392;2022-11-04T04:58:07;100406.88;;;30.45;36.73
64404;BME280;50726;54.912;-8.392;2022-11-04T05:00:32;100410.91;;;31.14;35.56
64404;BME280;50726;54.912;-8.392;2022-11-04T05:02:58;100389.84;;;29.78;36.90
64404;BME280;50726;54.912;-8.392;2022-11-04T05:05:24;100407.06;;;30.35;35.86
64404;BME280;50726;54.912;-8.392;2022-11-04T05:07:50;100392.69;;;30.51;36.57
64404;BME280;50726;54.912;-8.392;2022-11-04T05:10:16;100410.22;;;31.20;35.80
64404;BME280;50726;54.912;-8.392;2022-11-04T05:12:42;100411.91;;;30.73;36.39
64404;BME280;50726;54.912;-8.392;2022-11-04T05:15:27;100415.88;;;31.02;36.13
64404;BME280;50726;54.912;-8.392;2022-11-04T05:17:59;100420.44;;;31.97;34.38
64404;BME280;50726;54.912;-8.392;2022-11-04T05:20:25;100413.34;;;31.41;34.64
64404;BME280;50726;54.912;-8.392;2022-11-04T05:22:51;100409.25;;;30.32;35.32
64404;BME280;50726;54.912;-8.392;2022-11-04T05:25:18;100418.78;;;31.32;34.48
64404;BME280;50726;54.912;-8.392;2022-11-04T05:27:43;100421.44;;;31.01;34.79
64404;BME280;50726;54.912;-8.392;2022-11-04T05:30:09;100411.41;;;31.18;34.84
64404;BME280;50726;54.912;-8.392;2022-11-04T05:32:35;100406.78;;;31.90;34.46
64404;BME280;50726;54.912;-8.392;2022-11-04T05:35:00;100405.50;;;32.78;33.27
64404;BME280;50726;54.912;-8.392;2022-11-04T05:37:27;100399.88;;;32.64;33.75
64404;BME280;50726;54.912;-8.392;2022-11-04T05:39:53;100405.66;;;31.29;34.36
64404;BME280;50726;54.912;-8.392;2022-11-04T05:42:19;100405.59;;;31.38;34.63
64404;BME280;50726;54.912;-8.392;2022-11-04T05:44:44;100415.97;;;32.27;33.47
64404;BME280;50726;54.912;-8.392;2022-11-04T05:47:10;100401.34;;;34.36;31.72
64404;BME280;50726;54.912;-8.392;2022-11-04T05:49:36;100409.34;;;32.30;34.28
64404;BME280;50726;54.912;-8.392;2022-11-04T05:52:02;100406.25;;;32.33;33.75
64404;BME280;50726;54.912;-8.392;2022-11-04T05:54:27;100400.63;;;33.77;32.77
64404;BME280;50726;54.912;-8.392;2022-11-04T05:56:53;100405.28;;;31.87;34.87
64404;BME280;50726;54.912;-8.392;2022-11-04T05:59:19;100419.94;;;32.17;34.76
64404;BME280;50726;54.912;-8.392;2022-11-04T06:01:45;100410.22;;;33.36;34.40
64404;BME280;50726;54.912;-8.392;2022-11-04T06:04:16;100423.28;;;33.69;34.01
64404;BME280;50726;54.912;-8.392;2022-11-04T06:06:42;100416.09;;;32.94;33.33
64404;BME280;50726;54.912;-8.392;2022-11-04T06:09:08;100428.81;;;31.55;35.33
64404;BME280;50726;54.912;-8.392;2022-11-04T06:11:35;100426.97;;;33.46;32.86
64404;BME280;50726;54.912;-8.392;2022-11-04T06:14:01;100425.50;;;34.03;32.45
64404;BME280;50726;54.912;-8.392;2022-11-04T06:16:27;100433.03;;;32.81;33.87
64404;BME280;50726;54.912;-8.392;2022-11-04T06:18:53;100435.13;;;33.46;33.53
64404;BME280;50726;54.912;-8.392;2022-11-04T06:21:26;100430.66;;;32.48;34.76
64404;BME280;50726;54.912;-8.392;2022-11-04T06:23:53;100422.28;;;34.42;32.86
64404;BME280;50726;54.912;-8.392;2022-11-04T06:26:21;100429.84;;;32.93;33.99
64404;BME280;50726;54.912;-8.392;2022-11-04T06:28:46;100433.66;;;32.84;34.17
64404;BME280;50726;54.912;-8.392;2022-11-04T06:31:12;100442.41;;;32.40;34.62
64404;BME280;50726;54.912;-8.392;2022-11-04T06:33:38;100427.38;;;33.58;33.59
64404;BME280;50726;54.912;-8.392;2022-11-04T06:36:07;100428.16;;;32.62;35.23
64404;BME280;50726;54.912;-8.392;2022-11-04T06:38:35;100430.50;;;32.65;35.72
64404;BME280;50726;54.912;-8.392;2022-11-04T06:41:08;100435.44;;;33.73;34.02
64404;BME280;50726;54.912;-8.392;2022-11-04T06:43:35;100439.75;;;33.31;34.60
64404;BME280;50726;54.912;-8.392;2022-11-04T06:46:02;100458.50;;;33.32;34.99
64404;BME280;50726;54.912;-8.392;2022-11-04T06:48:28;100463.63;;;32.67;35.23
64404;BME280;50726;54.912;-8.392;2022-11-04T06:50:56;100451.09;;;33.41;33.65
64404;BME280;50726;54.912;-8.392;2022-11-04T06:53:23;100467.91;;;32.46;34.81
64404;BME280;50726;54.912;-8.392;2022-11-04T06:55:48;100478.88;;;32.06;35.88
64404;BME280;50726;54.912;-8.392;2022-11-04T06:58:15;100461.41;;;31.85;35.98
64404;BME280;50726;54.912;-8.392;2022-11-04T07:00:41;100462.91;;;31.56;37.12
64404;BME280;50726;54.912;-8.392;2022-11-04T07:03:08;100461.25;;;34.35;34.77
64404;BME280;50726;54.912;-8.392;2022-11-04T07:05:34;100475.34;;;32.44;36.29
64404;BME280;50726;54.912;-8.392;2022-11-04T07:08:00;100473.66;;;32.43;36.37
64404;BME280;50726;54.912;-8.392;2022-11-04T07:10:25;100451.44;;;31.54;37.34
64404;BME280;50726;54.912;-8.392;2022-11-04T07:12:51;100471.91;;;31.48;37.61
64404;BME280;50726;54.912;-8.392;2022-11-04T07:15:18;100485.41;;;32.74;36.09
64404;BME280;50726;54.912;-8.392;2022-11-04T07:17:44;100477.22;;;31.65;38.03
64404;BME280;50726;54.912;-8.392;2022-11-04T07:20:10;100478.13;;;32.12;37.81
64404;BME280;50726;54.912;-8.392;2022-11-04T07:22:38;100469.75;;;32.46;37.38
64404;BME280;50726;54.912;-8.392;2022-11-04T07:25:04;100473.69;;;32.97;36.19
64404;BME280;50726;54.912;-8.392;2022-11-04T07:27:30;100474.88;;;32.40;37.16
64404;BME280;50726;54.912;-8.392;2022-11-04T07:29:56;100473.88;;;32.41;37.01
64404;BME280;50726;54.912;-8.392;2022-11-04T07:32:21;100473.94;;;32.10;37.82
64404;BME280;50726;54.912;-8.392;2022-11-04T07:34:47;100482.88;;;32.87;37.33
64404;BME280;50726;54.912;-8.392;2022-11-04T07:37:12;100481.91;;;32.03;38.34
64404;BME280;50726;54.912;-8.392;2022-11-04T07:39:38;100485.84;;;34.84;35.23
64404;BME280;50726;54.912;-8.392;2022-11-04T07:42:06;100486.03;;;35.59;34.42
64404;BME280;50726;54.912;-8.392;2022-11-04T07:44:32;100497.06;;;34.45;35.53
64404;BME280;50726;54.912;-8.392;2022-11-04T07:46:58;100506.16;;;34.88;36.08
64404;BME280;50726;54.912;-8.392;2022-11-04T07:49:23;100521.47;;;32.89;38.64
64404;BME280;50726;54.912;-8.392;2022-11-04T07:51:50;100505.75;;;31.68;43.32
64404;BME280;50726;54.912;-8.392;2022-11-04T07:54:16;100513.56;;;33.03;41.24
64404;BME280;50726;54.912;-8.392;2022-11-04T07:56:41;100502.81;;;33.25;40.79
64404;BME280;50726;54.912;-8.392;2022-11-04T07:59:07;100506.88;;;34.24;39.05
64404;BME280;50726;54.912;-8.392;2022-11-04T08:01:32;100525.19;;;32.88;42.06
64404;BME280;50726;54.912;-8.392;2022-11-04T08:03:58;100506.41;;;32.10;43.98
64404;BME280;50726;54.912;-8.392;2022-11-04T08:06:26;100501.22;;;32.47;44.27
64404;BME280;50726;54.912;-8.392;2022-11-04T08:08:52;100512.28;;;32.13;43.97
64404;BME280;50726;54.912;-8.392;2022-11-04T08:11:22;100532.16;;;35.04;40.75
64404;BME280;50726;54.912;-8.392;2022-11-04T08:13:53;100524.78;;;33.45;43.94
64404;BME280;50726;54.912;-8.392;2022-11-04T08:16:21;100527.44;;;34.34;43.46
64404;BME280;50726;54.912;-8.392;2022-11-04T08:18:48;100529.72;;;34.80;42.51
64404;BME280;50726;54.912;-8.392;2022-11-04T08:21:16;100529.56;;;36.22;40.09
64404;BME280;50726;54.912;-8.392;2022-11-04T08:23:42;100535.34;;;33.92;42.50
64404;BME280;50726;54.912;-8.392;2022-11-04T08:26:10;100541.47;;;34.88;41.86
64404;BME280;50726;54.912;-8.392;2022-11-04T08:28:36;100533.84;;;34.04;41.62
64404;BME280;50726;54.912;-8.392;2022-11-04T08:33:33;100557.03;;;33.92;44.64
64404;BME280;50726;54.912;-8.392;2022-11-04T08:36:10;100558.59;;;35.94;40.89
64404;BME280;50726;54.912;-8.392;2022-11-04T08:38:37;100540.19;;;34.11;42.87
64404;BME280;50726;54.912;-8.392;2022-11-04T08:41:07;100554.59;;;33.97;44.71
64404;BME280;50726;54.912;-8.392;2022-11-04T08:43:33;100562.09;;;31.56;48.63
64404;BME280;50726;54.912;-8.392;2022-11-04T08:46:00;100557.31;;;33.45;46.30
64404;BME280;50726;54.912;-8.392;2022-11-04T08:48:26;100552.88;;;35.33;41.87
64404;BME280;50726;54.912;-8.392;2022-11-04T08:50:56;100552.22;;;35.67;42.03
64404;BME280;50726;54.912;-8.392;2022-11-04T08:53:23;100549.38;;;34.83;42.13
64404;BME280;50726;54.912;-8.392;2022-11-04T08:55:49;100547.75;;;34.60;42.38
64404;BME280;50726;54.912;-8.392;2022-11-04T08:58:15;100568.94;;;34.49;42.66
64404;BME280;50726;54.912;-8.392;2022-11-04T09:00:42;100558.31;;;34.76;42.53
64404;BME280;50726;54.912;-8.392;2022-11-04T09:03:08;100564.19;;;35.08;41.59
64404;BME280;50726;54.912;-8.392;2022-11-04T09:05:40;100570.66;;;33.46;45.34
64404;BME280;50726;54.912;-8.392;2022-11-04T09:08:14;100547.56;;;34.18;44.26
64404;BME280;50726;54.912;-8.392;2022-11-04T09:10:44;100566.56;;;32.12;48.41
64404;BME280;50726;54.912;-8.392;2022-11-04T09:13:11;100560.00;;;32.06;47.92
64404;BME280;50726;54.912;-8.392;2022-11-04T09:15:37;100563.47;;;32.85;46.80
64404;BME280;50726;54.912;-8.392;2022-11-04T09:18:09;100564.75;;;34.47;44.76
64404;BME280;50726;54.912;-8.392;2022-11-04T09:20:35;100554.81;;;33.80;44.96
64404;BME280;50726;54.912;-8.392;2022-11-04T09:23:05;100554.44;;;34.57;43.92
64404;BME280;50726;54.912;-8.392;2022-11-04T09:25:31;100580.69;;;34.13;44.86
64404;BME280;50726;54.912;-8.392;2022-11-04T09:27:58;100602.84;;;33.65;47.25
64404;BME280;50726;54.912;-8.392;2022-11-04T09:30:24;100579.69;;;32.47;47.73
64404;BME280;50726;54.912;-8.392;2022-11-04T09:32:50;100588.41;;;33.79;45.56
64404;BME280;50726;54.912;-8.392;2022-11-04T09:35:16;100578.44;;;33.65;44.52
64404;BME280;50726;54.912;-8.392;2022-11-04T09:37:42;100580.94;;;34.84;42.58
64404;BME280;50726;54.912;-8.392;2022-11-04T09:40:15;100584.00;;;36.22;41.73
64404;BME280;50726;54.912;-8.392;2022-11-04T09:45:30;100582.59;;;36.87;40.43
64404;BME280;50726;54.912;-8.392;2022-11-04T09:48:03;100571.88;;;34.98;41.60
64404;BME280;50726;54.912;-8.392;2022-11-04T09:50:51;100575.47;;;35.41;40.69
64404;BME280;50726;54.912;-8.392;2022-11-04T09:53:39;100583.94;;;35.59;40.29
64404;BME280;50726;54.912;-8.392;2022-11-04T09:56:20;100582.09;;;36.16;40.46
64404;BME280;50726;54.912;-8.392;2022-11-04T09:58:49;100593.56;;;34.48;42.97
64404;BME280;50726;54.912;-8.392;2022-11-04T10:09:42;100582.91;;;35.18;42.72
64404;BME280;50726;54.912;-8.392;2022-11-04T10:20:44;100611.88;;;31.61;46.66
64404;BME280;50726;54.912;-8.392;2022-11-04T10:23:31;100605.78;;;34.00;44.11
64404;BME280;50726;54.912;-8.392;2022-11-04T10:26:14;100604.59;;;35.12;43.36
64404;BME280;50726;54.912;-8.392;2022-11-04T10:29:05;100608.19;;;35.54;41.71
64404;BME280;50726;54.912;-8.392;2022-11-04T10:31:34;100600.75;;;35.70;41.11
64404;BME280;50726;54.912;-8.392;2022-11-04T10:34:08;100598.88;;;35.06;41.71
64404;BME280;50726;54.912;-8.392;2022-11-04T10:36:37;100608.19;;;35.19;41.20
64404;BME280;50726;54.912;-8.392;2022-11-04T10:39:12;100628.75;;;33.52;43.98
64404;BME280;50726;54.912;-8.392;2022-11-04T10:41:41;100602.72;;;34.90;41.52
64404;BME280;50726;54.912;-8.392;2022-11-04T10:44:18;100617.97;;;35.84;40.43
64404;BME280;50726;54.912;-8.392;2022-11-04T10:46:55;100607.44;;;38.10;37.81
64404;BME280;50726;54.912;-8.392;2022-11-04T10:52:15;100613.31;;;35.71;40.91
64404;BME280;50726;54.912;-8.392;2022-11-04T10:54:45;100606.94;;;36.61;39.55
64404;BME280;50726;54.912;-8.392;2022-11-04T10:57:18;100600.19;;;36.84;38.48
64404;BME280;50726;54.912;-8.392;2022-11-04T10:59:54;100596.19;;;37.86;37.32
64404;BME280;50726;54.912;-8.392;2022-11-04T11:05:22;100590.56;;;38.59;35.47
64404;BME280;50726;54.912;-8.392;2022-11-04T11:07:54;100593.28;;;38.59;35.51
64404;BME280;50726;54.912;-8.392;2022-11-04T11:10:30;100591.28;;;38.41;34.92
64404;BME280;50726;54.912;-8.392;2022-11-04T11:13:23;100597.66;;;39.11;34.60
64404;BME280;50726;54.912;-8.392;2022-11-04T11:16:03;100599.03;;;38.44;35.58
64404;BME280;50726;54.912;-8.392;2022-11-04T11:18:30;100607.28;;;36.58;36.68
64404;BME280;50726;54.912;-8.392;2022-11-04T11:21:13;100613.34;;;37.41;36.24
64404;BME280;50726;54.912;-8.392;2022-11-04T11:23:45;100602.91;;;37.25;36.66
64404;BME280;50726;54.912;-8.392;2022-11-04T11:26:19;100613.63;;;34.68;38.60
64404;BME280;50726;54.912;-8.392;2022-11-04T11:28:53;100616.13;;;35.49;37.37
64404;BME280;50726;54.912;-8.392;2022-11-04T11:31:34;100621.72;;;35.76;37.47
64404;BME280;50726;54.912;-8.392;2022-11-04T11:34:06;100612.38;;;35.99;36.48
64404;BME280;50726;54.912;-8.392;2022-11-04T11:36:38;100612.59;;;35.20;37.40
64404;BME280;50726;54.912;-8.392;2022-11-04T11:41:57;100624.06;;;33.61;41.19
64404;BME280;50726;54.912;-8.392;2022-11-04T11:44:41;100614.81;;;36.49;38.14
64404;BME280;50726;54.912;-8.392;2022-11-04T11:47:34;100610.59;;;36.20;37.87
64404;BME280;50726;54.912;-8.392;2022-11-04T11:52:39;100634.56;;;34.75;39.39
64404;BME280;50726;54.912;-8.392;2022-11-04T11:55:27;100635.47;;;34.60;40.37
64404;BME280;50726;54.912;-8.392;2022-11-04T12:01:17;100637.53;;;32.54;43.95
64404;BME280;50726;54.912;-8.392;2022-11-04T12:03:45;100641.03;;;32.23;45.25
64404;BME280;50726;54.912;-8.392;2022-11-04T12:28:25;100650.69;;;34.03;44.11
64404;BME280;50726;54.912;-8.392;2022-11-04T12:34:31;100662.41;;;33.19;44.08
64404;BME280;50726;54.912;-8.392;2022-11-04T12:40:08;100661.22;;;32.75;43.82
64404;BME280;50726;54.912;-8.392;2022-11-04T12:43:18;100664.91;;;33.59;41.78
64404;BME280;50726;54.912;-8.392;2022-11-04T12:46:09;100659.03;;;34.38;40.85
64404;BME280;50726;54.912;-8.392;2022-11-04T12:56:31;100660.41;;;33.67;42.37
64404;BME280;50726;54.912;-8.392;2022-11-04T13:01:38;100660.66;;;34.02;41.74
64404;BME280;50726;54.912;-8.392;2022-11-04T13:04:20;100651.81;;;35.11;39.64
64404;BME280;50726;54.912;-8.392;2022-11-04T13:06:57;100645.38;;;34.68;39.55
64404;BME280;50726;54.912;-8.392;2022-11-04T13:09:38;100635.28;;;33.58;41.30
64404;BME280;50726;54.912;-8.392;2022-11-04T13:12:16;100645.16;;;34.11;42.29
64404;BME280;50726;54.912;-8.392;2022-11-04T13:14:49;100631.31;;;33.91;42.85
64404;BME280;50726;54.912;-8.392;2022-11-04T13:17:31;100628.16;;;34.83;40.07
64404;BME280;50726;54.912;-8.392;2022-11-04T13:20:51;100639.34;;;34.73;40.57
64404;BME280;50726;54.912;-8.392;2022-11-04T13:22:52;100639.16;;;34.15;40.75
64404;BME280;50726;54.912;-8.392;2022-11-04T13:25:32;100652.28;;;33.82;41.72
64404;BME280;50726;54.912;-8.392;2022-11-04T13:27:59;100643.91;;;32.61;43.88
64404;BME280;50726;54.912;-8.392;2022-11-04T13:30:36;100638.50;;;34.13;42.03
64404;BME280;50726;54.912;-8.392;2022-11-04T13:35:52;100638.34;;;36.01;38.15
64404;BME280;50726;54.912;-8.392;2022-11-04T13:38:39;100632.22;;;36.35;38.07
64404;BME280;50726;54.912;-8.392;2022-11-04T13:44:26;100632.72;;;36.79;37.63
64404;BME280;50726;54.912;-8.392;2022-11-04T13:46:57;100641.22;;;34.94;39.53
64404;BME280;50726;54.912;-8.392;2022-11-04T13:49:26;100642.50;;;34.98;39.12
64404;BME280;50726;54.912;-8.392;2022-11-04T13:52:10;100633.53;;;35.97;38.04
64404;BME280;50726;54.912;-8.392;2022-11-04T13:54:43;100622.59;;;36.52;37.69
64404;BME280;50726;54.912;-8.392;2022-11-04T13:57:16;100627.00;;;37.01;36.75
64404;BME280;50726;54.912;-8.392;2022-11-04T14:10:44;100655.56;;;34.66;39.16
64404;BME280;50726;54.912;-8.392;2022-11-04T14:16:09;100653.94;;;34.50;38.56
64404;BME280;50726;54.912;-8.392;2022-11-04T14:18:38;100654.88;;;34.79;38.55
64404;BME280;50726;54.912;-8.392;2022-11-04T14:21:16;100662.06;;;34.87;38.50
64404;BME280;50726;54.912;-8.392;2022-11-04T14:23:45;100652.66;;;34.89;38.26
64404;BME280;50726;54.912;-8.392;2022-11-04T14:26:14;100656.59;;;33.91;39.32
64404;BME280;50726;54.912;-8.392;2022-11-04T14:28:46;100648.59;;;32.67;41.21
64404;BME280;50726;54.912;-8.392;2022-11-04T14:31:36;100660.19;;;34.65;38.53
64404;BME280;50726;54.912;-8.392;2022-11-04T14:34:03;100658.06;;;32.00;42.46
64404;BME280;50726;54.912;-8.392;2022-11-04T14:36:39;100659.19;;;33.54;41.29
64404;BME280;50726;54.912;-8.392;2022-11-04T14:52:20;100629.16;;;33.41;41.93
64404;BME280;50726;54.912;-8.392;2022-11-04T14:54:48;100630.38;;;33.98;40.92
64404;BME280;50726;54.912;-8.392;2022-11-04T14:57:19;100634.56;;;34.16;40.40
64404;BME280;50726;54.912;-8.392;2022-11-04T14:59:46;100622.41;;;34.12;40.94
64404;BME280;50726;54.912;-8.392;2022-11-04T15:02:23;100627.88;;;33.52;41.25
64404;BME280;50726;54.912;-8.392;2022-11-04T15:05:00;100623.88;;;33.78;40.80
64404;BME280;50726;54.912;-8.392;2022-11-04T15:07:37;100622.81;;;34.09;40.46
64404;BME280;50726;54.912;-8.392;2022-11-04T15:12:46;100625.72;;;33.47;40.72
64404;BME280;50726;54.912;-8.392;2022-11-04T15:15:38;100618.25;;;34.53;39.53
64404;BME280;50726;54.912;-8.392;2022-11-04T15:18:25;100614.31;;;33.67;40.35
64404;BME280;50726;54.912;-8.392;2022-11-04T15:20:58;100616.66;;;34.80;38.95
64404;BME280;50726;54.912;-8.392;2022-11-04T15:25:52;100605.59;;;34.82;37.80
64404;BME280;50726;54.912;-8.392;2022-11-04T15:28:24;100612.75;;;35.12;37.84
64404;BME280;50726;54.912;-8.392;2022-11-04T15:33:43;100596.84;;;35.44;38.22